createdAt,value
2018-05-09T00:01:15.719Z,14.30
2018-05-09T00:03:43.510Z,14.20
2018-05-09T00:06:11.733Z,14.00
2018-05-09T00:08:39.543Z,14.00
2018-05-09T00:11:07.376Z,13.80
2018-05-09T00:13:35.232Z,13.80
2018-05-09T00:16:03.888Z,13.70
2018-05-09T00:21:14.638Z,13.80
2018-05-09T00:23:42.480Z,13.80
2018-05-09T00:26:26.312Z,13.80
2018-05-09T00:28:54.919Z,13.80
2018-05-09T00:31:22.772Z,13.80
2018-05-09T00:33:51.372Z,13.80
2018-05-09T00:36:19.975Z,13.80
2018-05-09T00:38:47.878Z,13.80
2018-05-09T00:41:15.763Z,13.70
2018-05-09T00:43:43.593Z,13.50
2018-05-09T00:52:03.087Z,13.20
2018-05-09T00:54:32.767Z,13.10
2018-05-09T00:57:01.459Z,13.20
2018-05-09T00:59:30.087Z,13.30
2018-05-09T01:01:57.901Z,13.20
2018-05-09T01:04:25.831Z,13.20
2018-05-09T01:06:56.150Z,13.10
2018-05-09T01:09:39.135Z,13.20
2018-05-09T01:12:07.104Z,13.10
2018-05-09T01:14:34.997Z,13.20
2018-05-09T01:17:02.820Z,13.10
2018-05-09T01:19:31.396Z,13.10
2018-05-09T01:22:00.000Z,12.90
2018-05-09T01:24:28.606Z,12.90
2018-05-09T01:26:56.457Z,12.90
2018-05-09T01:29:25.040Z,12.90
2018-05-09T01:31:53.627Z,12.90
2018-05-09T01:34:22.311Z,12.70
2018-05-09T01:36:50.132Z,12.70
2018-05-09T01:39:17.986Z,12.80
2018-05-09T01:41:46.625Z,12.80
2018-05-09T01:44:14.463Z,12.80
2018-05-09T01:46:43.055Z,12.90
2018-05-09T01:49:11.772Z,12.90
2018-05-09T01:51:39.639Z,12.90
2018-05-09T01:54:07.461Z,12.90
2018-05-09T01:56:35.289Z,12.80
2018-05-09T01:59:03.131Z,12.80
2018-05-09T02:01:30.957Z,12.70
2018-05-09T02:03:58.823Z,12.80
2018-05-09T02:06:26.703Z,12.80
2018-05-09T02:08:54.659Z,12.60
2018-05-09T02:11:22.539Z,12.70
2018-05-09T02:13:50.415Z,12.70
2018-05-09T02:16:19.069Z,12.60
2018-05-09T02:22:07.684Z,12.50
2018-05-09T02:24:35.524Z,12.50
2018-05-09T02:27:04.130Z,12.60
2018-05-09T02:29:32.731Z,12.60
2018-05-09T02:32:00.673Z,12.60
2018-05-09T02:37:11.960Z,12.40
2018-05-09T02:39:39.767Z,12.50
2018-05-09T02:42:07.607Z,12.60
2018-05-09T02:44:36.208Z,12.60
2018-05-09T02:47:04.045Z,12.60
2018-05-09T02:49:31.898Z,12.50
2018-05-09T02:51:59.716Z,12.50
2018-05-09T02:54:27.648Z,12.50
2018-05-09T02:56:55.485Z,12.40
2018-05-09T02:59:23.491Z,12.50
2018-05-09T03:01:52.076Z,12.60
2018-05-09T03:04:20.672Z,12.50
2018-05-09T03:06:50.437Z,12.40
2018-05-09T03:09:20.789Z,12.40
2018-05-09T03:11:48.603Z,12.30
2018-05-09T03:14:16.443Z,12.40
2018-05-09T03:16:44.312Z,12.50
2018-05-09T03:19:12.144Z,12.50
2018-05-09T03:21:41.155Z,12.40
2018-05-09T03:24:08.961Z,12.50
2018-05-09T03:26:36.783Z,12.50
2018-05-09T03:29:05.387Z,12.60
2018-05-09T03:31:33.356Z,12.60
2018-05-09T03:34:01.192Z,12.60
2018-05-09T03:36:28.995Z,12.60
2018-05-09T03:38:56.815Z,12.60
2018-05-09T03:41:24.641Z,12.70
2018-05-09T03:43:52.631Z,12.80
2018-05-09T03:46:20.480Z,12.80
2018-05-09T03:48:48.319Z,12.80
2018-05-09T03:51:16.229Z,12.80
2018-05-09T03:53:44.058Z,12.80
2018-05-09T03:56:11.899Z,12.90
2018-05-09T03:58:40.498Z,12.90
2018-05-09T04:01:08.403Z,12.90
2018-05-09T04:03:42.186Z,13.00
2018-05-09T04:06:15.832Z,13.00
2018-05-09T04:08:56.041Z,13.10
2018-05-09T04:11:24.034Z,13.10
2018-05-09T04:13:51.871Z,13.10
2018-05-09T04:16:19.791Z,13.20
2018-05-09T04:18:47.628Z,13.20
2018-05-09T04:21:15.476Z,13.10
2018-05-09T04:23:43.447Z,13.10
2018-05-09T04:26:11.568Z,12.70
2018-05-09T04:28:39.401Z,12.70
2018-05-09T04:31:07.351Z,12.90
2018-05-09T04:33:35.240Z,12.90
2018-05-09T04:36:03.077Z,13.00
2018-05-09T04:42:02.746Z,13.00
2018-05-09T04:44:31.264Z,12.90
2018-05-09T04:46:59.094Z,12.90
2018-05-09T04:49:26.927Z,13.00
2018-05-09T04:51:55.560Z,13.20
2018-05-09T04:54:23.363Z,13.20
2018-05-09T04:56:51.375Z,13.40
2018-05-09T04:59:19.291Z,13.50
2018-05-09T05:02:04.017Z,13.70
2018-05-09T05:04:32.762Z,13.70
2018-05-09T05:07:00.740Z,13.70
2018-05-09T05:09:28.511Z,13.80
2018-05-09T05:11:56.352Z,14.00
2018-05-09T05:14:24.203Z,14.10
2018-05-09T05:16:52.091Z,14.30
2018-05-09T05:19:19.998Z,14.40
2018-05-09T05:21:48.693Z,14.60
2018-05-09T05:24:17.287Z,14.70
2018-05-09T05:26:45.321Z,14.70
2018-05-09T05:29:13.196Z,14.80
2018-05-09T05:31:41.031Z,14.80
2018-05-09T05:34:08.858Z,15.00
2018-05-09T05:36:37.454Z,15.30
2018-05-09T05:39:05.306Z,15.30
2018-05-09T05:41:33.915Z,15.50
2018-05-09T06:00:38.978Z,15.70
2018-05-09T06:03:06.811Z,15.90
2018-05-09T06:05:35.385Z,15.90
2018-05-09T06:08:04.082Z,15.80
2018-05-09T06:10:32.684Z,15.90
2018-05-09T06:13:16.383Z,15.90
2018-05-09T06:15:45.288Z,16.20
2018-05-09T06:18:13.332Z,16.20
2018-05-09T06:20:41.339Z,16.30
2018-05-09T06:23:09.273Z,16.50
2018-05-09T06:25:37.429Z,16.50
2018-05-09T06:28:05.327Z,16.60
2018-05-09T06:30:33.183Z,16.80
2018-05-09T06:33:01.022Z,16.90
2018-05-09T06:35:29.606Z,17.20
2018-05-09T06:37:58.253Z,17.30
2018-05-09T06:40:26.084Z,17.20
2018-05-09T06:42:53.950Z,17.40
2018-05-09T06:45:21.785Z,17.50
2018-05-09T06:47:50.404Z,18.00
2018-05-09T06:50:18.318Z,18.00
2018-05-09T06:52:46.932Z,18.50
2018-05-09T06:55:15.548Z,18.90
2018-05-09T06:57:43.361Z,18.80
2018-05-09T07:00:11.061Z,19.40
2018-05-09T07:02:39.151Z,20.20
2018-05-09T07:05:07.443Z,21.60
2018-05-09T07:17:09.051Z,25.60
2018-05-09T07:19:37.239Z,25.60
2018-05-09T07:22:05.561Z,26.70
2018-05-09T07:24:34.038Z,26.80
2018-05-09T07:27:01.985Z,27.30
2018-05-09T07:29:29.874Z,27.90
2018-05-09T07:45:41.266Z,29.70
2018-05-09T07:48:09.105Z,29.70
2018-05-09T07:50:37.706Z,29.70
2018-05-09T07:53:06.299Z,28.00
2018-05-09T07:55:34.160Z,28.00
2018-05-09T07:58:02.726Z,29.00
2018-05-09T08:00:31.322Z,30.10
2018-05-09T08:02:59.921Z,29.60
2018-05-09T08:05:27.744Z,29.60
2018-05-09T08:07:55.586Z,29.80
2018-05-09T08:10:23.405Z,29.20
2018-05-09T08:12:51.259Z,27.80
2018-05-09T08:18:01.847Z,28.10
2018-05-09T08:20:29.762Z,28.20
2018-05-09T08:22:57.572Z,28.80
2018-05-09T08:25:25.381Z,28.50
2018-05-09T08:27:53.271Z,27.50
2018-05-09T08:30:21.108Z,28.00
2018-05-09T08:32:48.903Z,28.30
2018-05-09T08:35:16.724Z,26.90
2018-05-09T08:37:44.551Z,27.20
2018-05-09T08:40:12.368Z,28.90
2018-05-09T08:42:40.268Z,30.60
2018-05-09T08:45:08.119Z,30.30
2018-05-09T08:47:51.108Z,29.90
2018-05-09T08:50:18.952Z,30.30
2018-05-09T08:52:47.572Z,28.30
2018-05-09T08:55:15.524Z,28.20
2018-05-09T08:57:43.346Z,27.10
2018-05-09T09:00:11.171Z,27.10
2018-05-09T09:02:39.029Z,25.30
2018-05-09T09:05:07.618Z,24.20
2018-05-09T09:17:05.756Z,24.30
2018-05-09T09:19:34.863Z,24.30
2018-05-09T09:22:02.685Z,23.60
2018-05-09T09:27:16.265Z,24.00
2018-05-09T09:29:44.095Z,24.00
2018-05-09T09:32:11.924Z,23.70
2018-05-09T09:34:40.514Z,23.60
2018-05-09T09:37:08.357Z,23.60
2018-05-09T09:39:36.173Z,24.20
2018-05-09T09:42:03.995Z,23.80
2018-05-09T09:44:31.935Z,24.20
2018-05-09T09:47:00.525Z,24.30
2018-05-09T09:49:29.110Z,24.00
2018-05-09T09:51:56.952Z,23.90
2018-05-09T09:54:24.891Z,23.60
2018-05-09T09:56:52.741Z,23.90
2018-05-09T09:59:20.600Z,23.90
2018-05-09T10:01:48.425Z,23.40
2018-05-09T10:04:17.015Z,23.40
2018-05-09T10:06:45.718Z,23.60
2018-05-09T10:09:13.617Z,23.60
2018-05-09T10:11:41.457Z,23.70
2018-05-09T10:14:09.287Z,23.90
2018-05-09T10:16:37.109Z,23.50
2018-05-09T10:19:04.935Z,23.70
2018-05-09T10:21:34.163Z,23.70
2018-05-09T10:24:02.013Z,23.70
2018-05-09T10:26:30.066Z,23.70
2018-05-09T10:28:57.817Z,23.50
2018-05-09T10:31:25.705Z,23.80
2018-05-09T10:33:54.303Z,23.80
2018-05-09T10:36:23.355Z,23.80
2018-05-09T10:38:51.186Z,23.80
2018-05-09T10:41:19.063Z,23.90
2018-05-09T10:43:46.891Z,24.20
2018-05-09T10:46:14.739Z,24.40
2018-05-09T10:48:43.359Z,24.00
2018-05-09T10:51:11.190Z,24.00
2018-05-09T10:53:39.092Z,24.00
2018-05-09T10:56:07.029Z,24.00
2018-05-09T10:58:35.635Z,23.90
2018-05-09T11:01:03.493Z,23.90
2018-05-09T11:03:47.232Z,24.10
2018-05-09T11:06:15.087Z,24.10
2018-05-09T11:08:43.085Z,24.30
2018-05-09T11:11:11.071Z,24.10
2018-05-09T11:16:55.320Z,24.40
2018-05-09T11:28:45.592Z,23.20
2018-05-09T11:31:13.404Z,23.50
2018-05-09T11:33:41.250Z,23.10
2018-05-09T11:36:09.900Z,23.10
2018-05-09T11:38:37.789Z,23.10
2018-05-09T11:41:05.594Z,23.40
2018-05-09T11:43:33.605Z,23.60
2018-05-09T11:46:01.468Z,23.50
2018-05-09T11:48:29.283Z,23.60
2018-05-09T11:50:57.216Z,23.70
2018-05-09T11:53:25.816Z,23.70
2018-05-09T11:58:53.473Z,24.20
2018-05-09T12:01:22.206Z,24.30
2018-05-09T12:03:50.037Z,24.30
2018-05-09T12:06:18.658Z,24.60
2018-05-09T12:11:31.429Z,24.70
2018-05-09T12:13:59.277Z,25.10
2018-05-09T12:16:27.144Z,25.30
2018-05-09T12:18:56.201Z,24.60
2018-05-09T12:21:24.820Z,24.50
2018-05-09T12:23:52.656Z,24.50
2018-05-09T12:29:07.378Z,23.80
2018-05-09T12:31:35.373Z,24.00
2018-05-09T12:34:03.212Z,23.80
2018-05-09T12:36:31.105Z,23.80
2018-05-09T12:38:58.873Z,23.90
2018-05-09T12:41:27.502Z,23.50
2018-05-09T12:43:55.324Z,23.50
2018-05-09T12:46:23.136Z,23.80
2018-05-09T12:48:51.756Z,23.90
2018-05-09T12:51:19.602Z,23.90
2018-05-09T12:53:47.512Z,23.90
2018-05-09T12:56:15.521Z,23.90
2018-05-09T12:58:43.367Z,24.40
2018-05-09T13:01:12.020Z,25.20
2018-05-09T13:03:39.871Z,25.20
2018-05-09T13:06:07.760Z,25.40
2018-05-09T13:11:17.937Z,25.30
2018-05-09T13:13:45.759Z,25.60
2018-05-09T13:16:13.576Z,26.40
2018-05-09T13:18:42.199Z,25.70
2018-05-09T13:21:10.020Z,25.70
2018-05-09T13:23:37.833Z,25.20
2018-05-09T13:26:05.654Z,26.90
2018-05-09T13:28:34.316Z,26.80
2018-05-09T13:31:04.766Z,26.70
2018-05-09T13:33:32.579Z,26.00
2018-05-09T13:36:00.405Z,27.00
2018-05-09T13:38:28.410Z,28.90
2018-05-09T13:40:56.353Z,31.20
2018-05-09T13:43:25.110Z,32.20
2018-05-09T13:45:52.932Z,32.10
2018-05-09T13:48:21.511Z,30.50
2018-05-09T13:50:49.337Z,30.50
2018-05-09T13:53:17.226Z,31.40
2018-05-09T13:55:45.842Z,31.20
2018-05-09T13:58:13.669Z,31.20
2018-05-09T14:00:41.549Z,31.50
2018-05-09T14:03:10.220Z,32.90
2018-05-09T14:05:38.811Z,30.70
2018-05-09T14:08:06.616Z,30.60
2018-05-09T14:10:34.450Z,30.10
2018-05-09T14:13:02.281Z,29.40
2018-05-09T14:18:12.314Z,28.00
2018-05-09T14:20:40.144Z,26.70
2018-05-09T14:29:02.710Z,25.20
2018-05-09T14:31:30.668Z,25.60
2018-05-09T14:33:58.488Z,27.00
2018-05-09T14:36:26.331Z,28.60
2018-05-09T14:38:54.163Z,30.10
2018-05-09T14:41:22.073Z,30.80
2018-05-09T14:43:50.694Z,31.50
2018-05-09T14:46:18.511Z,31.50
2018-05-09T14:52:31.396Z,29.20
2018-05-09T14:54:59.209Z,29.20
2018-05-09T14:57:27.887Z,29.10
2018-05-09T14:59:55.705Z,29.10
2018-05-09T15:02:23.527Z,28.60
2018-05-09T15:04:51.416Z,27.50
2018-05-09T15:07:20.012Z,27.50
2018-05-09T15:09:47.845Z,27.50
2018-05-09T15:12:16.443Z,27.50
2018-05-09T15:14:45.055Z,27.50
2018-05-09T15:17:12.911Z,27.50
2018-05-09T15:22:21.511Z,29.10
2018-05-09T15:24:49.327Z,29.10
2018-05-09T15:27:17.173Z,29.10
2018-05-09T15:29:45.008Z,28.60
2018-05-09T15:32:13.653Z,28.40
2018-05-09T15:34:42.619Z,28.60
2018-05-09T15:37:10.516Z,28.60
2018-05-09T15:39:38.474Z,28.40
2018-05-09T15:42:06.325Z,27.50
2018-05-09T15:44:34.170Z,27.20
2018-05-09T15:47:02.841Z,26.70
2018-05-09T15:49:30.683Z,26.60
2018-05-09T15:51:58.623Z,26.50
2018-05-09T15:54:26.473Z,26.10
2018-05-09T15:56:54.301Z,26.40
2018-05-09T15:59:22.197Z,26.70
2018-05-09T16:01:49.947Z,26.40
2018-05-09T16:04:17.751Z,26.10
2018-05-09T16:06:45.569Z,25.20
2018-05-09T16:09:13.387Z,25.00
2018-05-09T16:11:42.000Z,24.50
2018-05-09T16:14:09.896Z,24.50
2018-05-09T16:16:38.552Z,25.00
2018-05-09T16:19:06.487Z,25.00
2018-05-09T16:21:34.351Z,24.90
2018-05-09T16:26:43.727Z,24.80
2018-05-09T16:32:51.503Z,24.10
2018-05-09T16:35:20.091Z,24.00
2018-05-09T16:37:48.719Z,24.00
2018-05-09T16:40:16.789Z,24.00
2018-05-09T16:42:44.591Z,23.80
2018-05-09T16:45:12.432Z,23.10
2018-05-09T16:47:40.303Z,22.80
2018-05-09T16:50:08.127Z,22.50
2018-05-09T16:52:35.959Z,22.10
2018-05-09T16:55:04.600Z,21.70
2018-05-09T16:57:32.424Z,21.70
2018-05-09T17:00:01.098Z,21.40
2018-05-09T17:02:29.740Z,21.10
2018-05-09T17:04:57.617Z,21.10
2018-05-09T17:07:25.541Z,21.00
2018-05-09T17:09:53.369Z,20.90
2018-05-09T17:12:21.196Z,20.90
2018-05-09T17:14:49.011Z,21.00
2018-05-09T17:17:16.869Z,21.00
2018-05-09T17:19:44.695Z,20.80
2018-05-09T17:22:24.159Z,21.00
2018-05-09T17:24:52.035Z,21.00
2018-05-09T17:27:19.827Z,21.00
2018-05-09T17:29:48.488Z,21.00
2018-05-09T17:32:16.308Z,21.00
2018-05-09T17:34:45.852Z,21.00
2018-05-09T17:37:13.682Z,21.00
2018-05-09T17:39:41.615Z,20.60
2018-05-09T17:42:10.268Z,20.60
2018-05-09T17:44:38.148Z,20.60
2018-05-09T17:47:05.961Z,20.70
2018-05-09T17:49:33.771Z,20.40
2018-05-09T17:52:01.607Z,20.20
2018-05-09T17:54:29.491Z,20.20
2018-05-09T17:56:57.321Z,20.30
2018-05-09T17:59:25.248Z,20.40
2018-05-09T18:01:53.122Z,20.30
2018-05-09T18:04:21.019Z,20.40
2018-05-09T18:06:49.659Z,20.40
2018-05-09T18:09:17.499Z,20.40
2018-05-09T18:11:46.162Z,20.50
2018-05-09T18:14:14.026Z,20.50
2018-05-09T18:16:42.637Z,20.50
2018-05-09T18:19:10.476Z,20.50
2018-05-09T18:21:38.279Z,20.50
2018-05-09T18:24:07.118Z,20.40
2018-05-09T18:26:35.008Z,20.40
2018-05-09T18:29:03.620Z,20.40
2018-05-09T18:31:31.440Z,20.40
2018-05-09T18:33:59.368Z,20.40
2018-05-09T18:36:27.959Z,20.10
2018-05-09T18:38:55.795Z,20.00
2018-05-09T18:41:23.691Z,20.00
2018-05-09T18:43:51.617Z,20.00
2018-05-09T18:46:20.216Z,19.80
2018-05-09T18:48:48.051Z,19.80
2018-05-09T18:51:15.938Z,19.60
2018-05-09T18:56:26.650Z,19.30
2018-05-09T18:58:57.289Z,19.00
2018-05-09T19:01:25.122Z,19.00
2018-05-09T19:03:54.854Z,19.10
2018-05-09T19:06:22.700Z,19.10
2018-05-09T19:08:51.339Z,19.20
2018-05-09T19:11:19.390Z,19.10
2018-05-09T19:13:47.271Z,19.10
2018-05-09T19:16:15.130Z,19.00
2018-05-09T19:18:44.190Z,18.90
2018-05-09T19:21:11.931Z,18.90
2018-05-09T19:23:39.804Z,18.80
2018-05-09T19:26:08.474Z,18.70
2018-05-09T19:28:36.435Z,18.60
2018-05-09T19:31:04.319Z,18.60
2018-05-09T19:33:32.140Z,18.70
2018-05-09T19:35:59.941Z,18.70
2018-05-09T19:38:29.116Z,18.60
2018-05-09T19:40:56.963Z,18.50
2018-05-09T19:43:24.782Z,18.60
2018-05-09T19:45:52.605Z,18.60
2018-05-09T19:48:20.520Z,18.60
2018-05-09T19:50:50.011Z,18.50
2018-05-09T19:53:17.887Z,18.50
2018-05-09T19:55:46.609Z,18.20
2018-05-09T19:58:15.252Z,18.20
2018-05-09T20:03:26.109Z,18.20
2018-05-09T20:05:54.691Z,18.00
2018-05-09T20:08:22.589Z,18.00
2018-05-09T20:10:51.280Z,17.80
2018-05-09T20:13:19.114Z,17.80
2018-05-09T20:15:47.400Z,17.80
2018-05-09T20:18:15.230Z,17.70
2018-05-09T20:20:43.057Z,17.70
2018-05-09T20:23:11.667Z,17.70
2018-05-09T20:25:39.544Z,17.60
2018-05-09T20:28:07.882Z,17.40
2018-05-09T20:30:41.422Z,17.20
2018-05-09T20:33:09.259Z,17.30
2018-05-09T20:35:37.901Z,17.30
2018-05-09T20:38:05.743Z,17.20
2018-05-09T20:40:33.555Z,17.20
2018-05-09T20:43:01.377Z,17.20
2018-05-09T20:45:29.451Z,17.10
2018-05-09T20:47:57.370Z,17.10
2018-05-09T20:50:25.209Z,17.00
2018-05-09T20:52:53.038Z,17.10
2018-05-09T20:55:26.823Z,17.10
2018-05-09T20:57:55.988Z,17.00
2018-05-09T21:00:23.955Z,17.00
2018-05-09T21:02:51.856Z,17.00
2018-05-09T21:05:20.627Z,16.90
2018-05-09T21:07:58.146Z,16.70
2018-05-09T21:10:26.728Z,16.70
2018-05-09T21:12:55.324Z,16.70
2018-05-09T21:18:58.207Z,16.60
2018-05-09T21:21:26.152Z,16.60
2018-05-09T21:23:54.889Z,16.00
2018-05-09T21:26:23.070Z,16.00
2018-05-09T21:28:50.916Z,16.10
2018-05-09T21:31:19.613Z,16.20
2018-05-09T21:37:32.035Z,16.30
2018-05-09T21:40:00.619Z,16.20
2018-05-09T21:42:28.463Z,16.20
2018-05-09T21:44:57.100Z,16.30
2018-05-09T21:50:07.163Z,16.20
2018-05-09T21:52:34.979Z,16.10
2018-05-09T21:55:03.586Z,15.90
2018-05-09T21:57:32.167Z,15.80
2018-05-09T22:00:00.756Z,15.90
2018-05-09T22:02:29.703Z,15.80
2018-05-09T22:04:57.693Z,15.70
2018-05-09T22:07:25.847Z,15.60
2018-05-09T22:18:53.242Z,15.60
2018-05-09T22:21:21.827Z,15.60
2018-05-09T22:23:49.635Z,15.50
2018-05-09T22:26:19.514Z,15.50
2018-05-09T22:28:47.424Z,15.50
2018-05-09T22:31:15.348Z,15.50
2018-05-09T22:33:43.219Z,15.40
2018-05-09T22:36:11.068Z,15.30
2018-05-09T22:38:38.894Z,15.10
2018-05-09T22:41:06.740Z,15.10
2018-05-09T22:47:33.006Z,15.20
2018-05-09T22:50:01.648Z,15.30
2018-05-09T22:52:29.483Z,15.30
2018-05-09T22:54:58.149Z,15.30
2018-05-09T22:57:26.642Z,15.20
2018-05-09T22:59:55.235Z,14.90
2018-05-09T23:02:23.826Z,14.90
2018-05-09T23:04:51.851Z,14.90
2018-05-09T23:07:20.375Z,14.90
2018-05-09T23:09:49.456Z,14.90
2018-05-09T23:12:17.291Z,14.90
2018-05-09T23:14:45.102Z,14.80
2018-05-09T23:17:13.711Z,14.60
2018-05-09T23:19:41.520Z,14.60
2018-05-09T23:22:09.334Z,14.40
2018-05-09T23:24:37.151Z,14.20
2018-05-09T23:27:05.736Z,13.90
2018-05-09T23:29:48.687Z,13.90
2018-05-09T23:32:16.567Z,13.80
2018-05-09T23:34:44.499Z,13.70
2018-05-09T23:37:13.112Z,13.60
2018-05-09T23:39:41.006Z,13.60
2018-05-09T23:42:08.815Z,13.70
2018-05-09T23:44:37.413Z,13.50
2018-05-09T23:47:05.995Z,13.50
2018-05-09T23:49:34.867Z,13.60
2018-05-09T23:52:02.810Z,13.50
2018-05-09T23:54:30.582Z,13.60
2018-05-09T23:56:58.406Z,13.60
2018-05-09T23:59:26.237Z,13.60
